Last 6 Hours

AM-Scott Top 8120'

15 Minute Data | America/Los_Angeles
as of 8/31/26 11:45 PM PDT
Date & Time Temp (°F) RH (%) Dew Pt (°F) Wet Bulb (°F) Wind Dir (°) Wind Spd (mph) Wind Gust (mph) WindChill (°F) Daily Min Temp (°F) Daily Max Temp (°F)
8/31/26 - 2345 48.3 66 37.6 42.6 NNW | 339 11.6 20.2 44.5 48.2 66.8
8/31/26 - 2330 48.8 65 37.6 42.8 NNW | 335 11.3 16.7 44.4 48.2 66.8
8/31/26 - 2315 49.1 65 37.7 43.0 NNW | 345 11.7 20.5 44.2 48.2 66.8
8/31/26 - 2300 48.5 68 38.5 43.2 NNW | 346 10.2 17.3 45.0 48.2 66.8
8/31/26 - 2245 48.4 69 38.9 43.2 NNW | 346 11.1 17.5 43.2 48.4 66.8
8/31/26 - 2230 48.9 68 38.6 43.4 NNW | 346 11.2 18.6 44.2 48.6 66.8
8/31/26 - 2215 48.9 68 39.0 43.6 NNW | 340 13.0 21.5 44.3 48.8 66.8
8/31/26 - 2200 49.5 66 38.8 43.7 NNW | 343 12.4 19.7 45.4 49.4 66.8
8/31/26 - 2145 49.6 67 39.0 43.9 NNW | 336 12.1 17.9 44.7 49.5 66.8
8/31/26 - 2130 50.0 66 39.0 44.0 NNW | 340 13.3 21.3 44.8 50.0 66.8
8/31/26 - 2115 50.7 63 38.3 44.0 NNW | 334 13.3 23.3 46.1 50.2 66.8
8/31/26 - 2100 50.7 62 38.2 44.0 NNW | 339 12.6 23.9 43.9 50.2 66.8
8/31/26 - 2045 50.7 64 39.0 44.4 NNW | 338 11.5 20.0 47.0 50.2 66.8
8/31/26 - 2030 50.7 63 38.8 44.3 NNW | 348 10.3 18.2 47.2 50.7 66.8
8/31/26 - 2015 51.6 61 38.5 44.5 NNW | 342 11.6 18.2 47.6 50.7 66.8
8/31/26 - 2000 51.1 63 38.9 44.5 N | 354 12.5 19.4 45.7 50.8 66.8
8/31/26 - 1945 51.3 63 39.0 44.6 N | 356 12.6 17.6 46.7 51.3 66.8
8/31/26 - 1930 52.1 61 39.0 44.9 N | 357 14.7 21.2 47.7 52.0 66.8
8/31/26 - 1915 53.0 58 38.8 45.2 N | 359 12.7 26.0 48.2 52.7 66.8
8/31/26 - 1900 53.9 57 39.2 45.8 N | 351 11.8 18.9 49.9 52.7 66.8
8/31/26 - 1845 54.8 56 39.2 46.2 NNE | 13 11.3 20.1 54.8 52.7 66.8
8/31/26 - 1830 55.7 54 39.6 46.7 N | 3 10.1 16.9 55.7 52.7 66.8
8/31/26 - 1815 57.7 52 40.3 47.9 N | 349 9.8 16.4 57.7 52.7 66.8
8/31/26 - 1800 58.4 51 40.5 48.2 N | 1 10.5 18.4 58.4 52.7 66.8
Max 58.4 69 40.5 48.2 - 14.7 26.0 58.4 52.7 66.8
Avg 51.4 62 38.8 44.5 - 11.8 19.6 47.5 - -
Min 48.3 51 37.6 42.6 - 9.8 16.4 43.2 48.2 66.8